createdAt,value
2023-02-21T00:01:43.500Z,9.00
2023-02-21T00:04:31.785Z,10.53
2023-02-21T00:07:20.052Z,9.27
2023-02-21T00:10:08.623Z,9.40
2023-02-21T00:12:57.368Z,9.18
2023-02-21T00:15:45.805Z,8.80
2023-02-21T00:18:34.016Z,8.53
2023-02-21T00:21:23.932Z,9.77
2023-02-21T00:24:11.889Z,9.32
2023-02-21T00:27:00.493Z,9.50
2023-02-21T00:29:46.812Z,8.43
2023-02-21T00:32:32.687Z,9.00
2023-02-21T00:35:21.369Z,9.32
2023-02-21T00:38:11.527Z,10.70
2023-02-21T00:41:00.242Z,9.90
2023-02-21T00:43:54.894Z,10.27
2023-02-21T00:46:42.759Z,8.90
2023-02-21T00:49:31.023Z,9.33
2023-02-21T00:52:18.625Z,10.30
2023-02-21T00:55:07.236Z,10.32
2023-02-21T00:57:55.824Z,9.50
2023-02-21T01:00:44.560Z,9.93
2023-02-21T01:03:33.211Z,10.70
2023-02-21T01:06:21.878Z,9.82
2023-02-21T01:09:10.423Z,10.93
2023-02-21T01:11:58.752Z,9.20
2023-02-21T01:14:46.979Z,11.00
2023-02-21T01:17:35.482Z,10.70
2023-02-21T01:20:25.454Z,10.40
2023-02-21T01:23:14.018Z,9.60
2023-02-21T01:26:02.274Z,11.60
2023-02-21T01:28:50.907Z,12.05
2023-02-21T01:31:40.642Z,10.95
2023-02-21T01:34:29.300Z,10.80
2023-02-21T01:37:17.797Z,10.83
2023-02-21T01:40:06.093Z,11.45
2023-02-21T01:42:54.340Z,11.37
2023-02-21T01:45:42.328Z,11.23
2023-02-21T01:48:39.446Z,10.57
2023-02-21T01:51:34.518Z,10.85
2023-02-21T01:54:25.385Z,10.85
2023-02-21T01:57:19.710Z,10.02
2023-02-21T02:00:15.652Z,10.32
2023-02-21T02:03:25.267Z,9.50
2023-02-21T02:06:31.893Z,9.68
2023-02-21T02:09:39.227Z,9.63
2023-02-21T02:12:57.221Z,9.95
2023-02-21T02:15:48.489Z,10.00
2023-02-21T02:18:55.956Z,9.55
2023-02-21T02:22:33.293Z,8.65
2023-02-21T02:25:41.065Z,9.57
2023-02-21T02:28:49.734Z,9.15
2023-02-21T02:35:04.706Z,9.13
2023-02-21T02:38:07.174Z,9.63
2023-02-21T02:41:04.031Z,9.05
2023-02-21T02:43:58.056Z,8.25
2023-02-21T02:46:33.051Z,8.65
2023-02-21T02:49:22.346Z,9.98
2023-02-21T02:54:23.364Z,9.30
2023-02-21T02:56:53.717Z,9.95
2023-02-21T02:59:33.307Z,9.98
2023-02-21T03:02:58.273Z,9.80
2023-02-21T03:06:19.417Z,8.73
2023-02-21T03:09:13.841Z,9.57
2023-02-21T03:12:24.543Z,9.90
2023-02-21T03:18:23.673Z,8.93
2023-02-21T03:21:05.851Z,9.50
2023-02-21T03:23:40.478Z,9.40
2023-02-21T03:26:17.014Z,9.50
2023-02-21T03:28:50.721Z,9.93
2023-02-21T03:31:31.763Z,10.68
2023-02-21T03:33:59.260Z,8.73
2023-02-21T03:36:29.336Z,9.63
2023-02-21T03:38:59.056Z,10.65
2023-02-21T03:41:28.855Z,9.90
2023-02-21T03:43:58.858Z,10.75
2023-02-21T03:46:28.860Z,10.50
2023-02-21T03:48:58.537Z,11.07
2023-02-21T03:51:28.299Z,10.35
2023-02-21T03:53:58.122Z,10.35
2023-02-21T03:56:36.723Z,10.52
2023-02-21T03:59:10.688Z,9.98
2023-02-21T04:01:40.543Z,10.45
2023-02-21T04:04:10.456Z,10.10
2023-02-21T04:06:40.226Z,10.60
2023-02-21T04:09:10.054Z,10.65
2023-02-21T04:11:45.419Z,10.68
2023-02-21T04:14:14.059Z,12.02
2023-02-21T04:16:43.447Z,9.50
2023-02-21T04:19:13.584Z,10.82
2023-02-21T04:21:43.366Z,12.20
2023-02-21T04:24:13.847Z,11.25
2023-02-21T04:26:43.058Z,11.05
2023-02-21T04:29:13.124Z,11.23
2023-02-21T04:31:43.225Z,10.40
2023-02-21T04:34:12.539Z,10.70
2023-02-21T04:36:40.461Z,11.68
2023-02-21T04:39:09.092Z,12.07
2023-02-21T04:41:36.709Z,10.50
2023-02-21T04:44:06.364Z,10.50
2023-02-21T04:46:34.315Z,10.13
2023-02-21T04:49:02.299Z,11.52
2023-02-21T04:51:30.488Z,11.55
2023-02-21T04:53:58.878Z,11.30
2023-02-21T04:56:28.148Z,11.88
2023-02-21T04:58:56.599Z,11.10
2023-02-21T05:01:31.493Z,11.60
2023-02-21T05:04:02.326Z,11.18
2023-02-21T05:06:33.075Z,13.07
2023-02-21T05:09:02.998Z,12.13
2023-02-21T05:11:35.131Z,12.02
2023-02-21T05:14:03.804Z,11.70
2023-02-21T05:16:31.397Z,12.32
2023-02-21T05:18:59.857Z,11.07
2023-02-21T05:21:28.388Z,12.52
2023-02-21T05:23:58.135Z,11.98
2023-02-21T05:26:36.249Z,12.80
2023-02-21T05:29:06.431Z,13.15
2023-02-21T05:31:34.766Z,12.02
2023-02-21T05:34:04.656Z,12.43
2023-02-21T05:36:34.430Z,13.32
2023-02-21T05:39:07.497Z,11.68
2023-02-21T05:41:37.266Z,10.30
2023-02-21T05:44:06.466Z,12.00
2023-02-21T05:46:36.530Z,12.65
2023-02-21T05:49:07.319Z,12.98
2023-02-21T05:51:40.955Z,11.30
2023-02-21T05:54:19.661Z,11.20
2023-02-21T05:56:52.639Z,11.13
2023-02-21T05:59:22.691Z,11.18
2023-02-21T06:01:52.721Z,11.48
2023-02-21T06:04:23.728Z,11.05
2023-02-21T06:06:53.559Z,11.77
2023-02-21T06:09:23.649Z,11.25
2023-02-21T06:11:57.371Z,11.90
2023-02-21T06:14:27.151Z,12.73
2023-02-21T06:16:57.054Z,12.55
2023-02-21T06:19:27.144Z,10.52
2023-02-21T06:21:56.596Z,10.85
2023-02-21T06:24:26.299Z,11.38
2023-02-21T06:26:56.097Z,11.65
2023-02-21T06:29:26.029Z,9.35
2023-02-21T06:32:02.163Z,12.25
2023-02-21T06:34:30.987Z,11.70
2023-02-21T06:37:00.651Z,12.38
2023-02-21T06:39:30.645Z,12.23
2023-02-21T06:42:00.608Z,10.52
2023-02-21T06:44:30.272Z,11.43
2023-02-21T06:47:00.152Z,11.35
2023-02-21T06:49:29.796Z,11.60
2023-02-21T06:52:00.911Z,11.10
2023-02-21T06:54:30.696Z,11.57
2023-02-21T06:57:01.866Z,11.57
2023-02-21T06:59:32.933Z,11.80
2023-02-21T07:02:03.012Z,11.77
2023-02-21T07:04:33.147Z,10.90
2023-02-21T07:07:02.949Z,11.35
2023-02-21T07:09:32.720Z,11.30
2023-02-21T07:12:03.394Z,11.35
2023-02-21T07:14:33.666Z,10.60
2023-02-21T07:17:04.079Z,11.75
2023-02-21T07:19:33.484Z,11.48
2023-02-21T07:22:03.988Z,10.40
2023-02-21T07:24:34.682Z,10.05
2023-02-21T07:27:05.230Z,10.25
2023-02-21T07:29:34.892Z,11.05
2023-02-21T07:32:05.030Z,10.00
2023-02-21T07:34:34.773Z,9.20
2023-02-21T07:37:04.525Z,9.75
2023-02-21T07:39:34.445Z,9.95
2023-02-21T07:42:09.605Z,9.85
2023-02-21T07:44:39.753Z,10.52
2023-02-21T07:47:08.162Z,10.98
2023-02-21T07:49:41.488Z,8.90
2023-02-21T07:52:11.248Z,9.43
2023-02-21T07:54:41.215Z,7.32
2023-02-21T07:57:10.775Z,7.78
2023-02-21T07:59:40.581Z,7.85
2023-02-21T08:02:12.716Z,6.60
2023-02-21T08:04:43.129Z,7.35
2023-02-21T08:07:12.806Z,5.38
2023-02-21T08:09:41.695Z,5.63
2023-02-21T08:12:14.879Z,5.22
2023-02-21T08:14:44.912Z,4.30
2023-02-21T08:17:14.915Z,3.40
2023-02-21T08:19:44.436Z,3.53
2023-02-21T08:22:14.307Z,3.47
2023-02-21T08:24:44.109Z,2.55
2023-02-21T08:27:13.947Z,2.10
2023-02-21T08:29:43.950Z,1.58
2023-02-21T08:32:14.078Z,1.45
2023-02-21T08:34:49.644Z,1.15
2023-02-21T08:37:20.270Z,0.98
2023-02-21T08:39:52.880Z,1.10
2023-02-21T08:42:23.088Z,1.55
2023-02-21T08:44:53.145Z,2.03
2023-02-21T08:47:22.848Z,2.25
2023-02-21T08:49:52.674Z,2.40
2023-02-21T08:52:22.490Z,2.33
2023-02-21T08:54:52.191Z,2.65
2023-02-21T08:57:22.011Z,2.40
2023-02-21T08:59:52.072Z,1.88
2023-02-21T09:02:25.748Z,1.85
2023-02-21T09:04:55.608Z,1.60
2023-02-21T09:07:26.061Z,1.95
2023-02-21T09:09:55.644Z,1.10
2023-02-21T09:12:25.646Z,1.23
2023-02-21T09:14:55.289Z,1.50
2023-02-21T09:17:25.100Z,1.50
2023-02-21T09:19:54.806Z,1.20
2023-02-21T09:22:24.554Z,1.40
2023-02-21T09:24:54.294Z,1.23
2023-02-21T09:27:36.489Z,1.10
2023-02-21T09:30:18.488Z,1.20
2023-02-21T09:32:46.155Z,1.10
2023-02-21T09:35:17.533Z,1.27
2023-02-21T09:37:48.559Z,1.70
2023-02-21T09:40:39.502Z,1.75
2023-02-21T09:43:33.363Z,1.70
2023-02-21T09:46:29.885Z,1.90
2023-02-21T09:49:04.551Z,1.98
2023-02-21T09:51:41.609Z,1.50
2023-02-21T09:54:33.227Z,1.35
2023-02-21T09:57:13.724Z,1.15
2023-02-21T09:59:43.921Z,1.10
2023-02-21T10:03:09.973Z,0.90
2023-02-21T10:06:05.413Z,1.10
2023-02-21T10:08:56.599Z,0.70
2023-02-21T10:12:14.716Z,0.98
2023-02-21T10:15:31.561Z,0.77
2023-02-21T10:18:34.086Z,0.75
2023-02-21T10:21:30.947Z,0.68
2023-02-21T10:24:37.732Z,0.75
2023-02-21T10:27:18.471Z,0.80
2023-02-21T10:30:17.135Z,0.70
2023-02-21T10:32:47.431Z,0.90
2023-02-21T10:35:15.976Z,0.75
2023-02-21T10:37:55.164Z,0.40
2023-02-21T10:40:41.616Z,0.80
2023-02-21T10:43:21.198Z,0.60
2023-02-21T10:46:08.103Z,0.90
2023-02-21T10:48:43.271Z,0.77
2023-02-21T10:51:32.581Z,0.73
2023-02-21T10:56:56.907Z,0.80
2023-02-21T10:59:42.300Z,0.95
2023-02-21T11:02:40.353Z,0.85
2023-02-21T11:05:23.805Z,0.88
2023-02-21T11:08:09.848Z,0.60
2023-02-21T11:10:45.176Z,0.90
2023-02-21T11:13:23.410Z,0.70
2023-02-21T11:16:20.372Z,1.17
2023-02-21T11:19:12.263Z,0.80
2023-02-21T11:21:45.339Z,1.10
2023-02-21T11:24:15.552Z,1.08
2023-02-21T11:26:54.017Z,1.00
2023-02-21T11:29:27.354Z,0.82
2023-02-21T11:31:57.607Z,1.00
2023-02-21T11:34:30.597Z,0.68
2023-02-21T11:37:05.451Z,0.68
2023-02-21T11:39:35.584Z,0.60
2023-02-21T11:42:32.397Z,0.70
2023-02-21T11:45:24.197Z,0.90
2023-02-21T11:48:07.067Z,0.75
2023-02-21T11:50:49.656Z,0.70
2023-02-21T11:53:34.778Z,0.75
2023-02-21T11:56:51.118Z,0.70
2023-02-21T12:00:02.738Z,0.80
2023-02-21T12:03:08.072Z,0.70
2023-02-21T12:06:28.986Z,0.70
2023-02-21T12:09:42.686Z,0.80
2023-02-21T12:12:32.918Z,0.95
2023-02-21T12:15:31.003Z,0.93
2023-02-21T12:19:01.315Z,1.05
2023-02-21T12:22:02.415Z,0.80
2023-02-21T12:25:27.685Z,0.93
2023-02-21T12:28:20.026Z,0.70
2023-02-21T12:31:23.489Z,1.10
2023-02-21T12:34:10.672Z,1.10
2023-02-21T12:37:20.326Z,0.70
2023-02-21T12:40:57.640Z,1.08
2023-02-21T12:43:58.357Z,1.63
2023-02-21T12:47:01.339Z,0.98
2023-02-21T12:50:26.393Z,1.15
2023-02-21T12:53:31.029Z,0.98
2023-02-21T12:56:59.887Z,1.23
2023-02-21T12:59:48.464Z,0.93
2023-02-21T13:03:05.745Z,1.25
2023-02-21T13:05:50.531Z,1.25
2023-02-21T13:08:50.204Z,1.35
2023-02-21T13:11:55.081Z,0.93
2023-02-21T13:14:41.408Z,1.17
2023-02-21T13:17:17.183Z,1.95
2023-02-21T13:20:10.490Z,1.25
2023-02-21T13:24:02.289Z,2.17
2023-02-21T13:27:06.105Z,1.48
2023-02-21T13:29:43.193Z,1.40
2023-02-21T13:32:22.665Z,1.40
2023-02-21T13:37:46.592Z,1.48
2023-02-21T13:40:47.707Z,1.50
2023-02-21T13:43:35.169Z,1.30
2023-02-21T13:46:29.750Z,1.48
2023-02-21T13:49:47.782Z,1.05
2023-02-21T13:52:23.250Z,1.20
2023-02-21T13:55:12.686Z,1.20
2023-02-21T13:58:11.964Z,1.30
2023-02-21T14:00:39.814Z,1.60
2023-02-21T14:03:12.543Z,1.30
2023-02-21T14:05:48.627Z,1.17
2023-02-21T14:08:45.403Z,1.40
2023-02-21T14:11:28.860Z,2.03
2023-02-21T14:14:27.205Z,1.50
2023-02-21T14:17:06.248Z,1.20
2023-02-21T14:19:46.393Z,1.30
2023-02-21T14:22:29.448Z,2.00
2023-02-21T14:25:25.632Z,1.95
2023-02-21T14:27:53.929Z,1.33
2023-02-21T14:30:34.458Z,1.13
2023-02-21T14:33:26.200Z,1.50
2023-02-21T14:36:10.545Z,1.52
2023-02-21T14:38:45.365Z,2.13
2023-02-21T14:41:59.537Z,1.90
2023-02-21T14:45:11.050Z,1.45
2023-02-21T14:48:06.722Z,1.70
2023-02-21T14:50:54.508Z,2.90
2023-02-21T14:54:04.240Z,2.03
2023-02-21T14:57:01.305Z,1.60
2023-02-21T15:00:18.865Z,2.03
2023-02-21T15:03:20.719Z,1.88
2023-02-21T15:05:50.624Z,1.67
2023-02-21T15:08:26.073Z,2.03
2023-02-21T15:11:29.455Z,1.60
2023-02-21T15:14:30.689Z,1.90
2023-02-21T15:17:19.140Z,1.85
2023-02-21T15:22:36.080Z,2.75
2023-02-21T15:25:09.037Z,1.52
2023-02-21T15:28:01.749Z,2.63
2023-02-21T15:30:42.143Z,1.60
2023-02-21T15:33:23.301Z,1.95
2023-02-21T15:36:01.794Z,2.05
2023-02-21T15:39:29.287Z,1.75
2023-02-21T15:42:09.793Z,1.55
2023-02-21T15:44:53.944Z,2.15
2023-02-21T15:47:30.702Z,2.13
2023-02-21T15:50:42.524Z,2.35
2023-02-21T15:53:25.136Z,1.92
2023-02-21T15:56:25.798Z,2.33
2023-02-21T15:59:26.184Z,2.13
2023-02-21T16:02:23.282Z,2.60
2023-02-21T16:04:53.928Z,3.00
2023-02-21T16:07:40.237Z,2.33
2023-02-21T16:10:15.259Z,2.88
2023-02-21T16:12:48.818Z,3.38
2023-02-21T16:15:18.695Z,3.28
2023-02-21T16:18:08.318Z,3.25
2023-02-21T16:20:44.720Z,4.28
2023-02-21T16:23:35.381Z,3.20
2023-02-21T16:26:15.652Z,2.90
2023-02-21T16:28:45.915Z,3.97
2023-02-21T16:31:29.412Z,2.80
2023-02-21T16:34:00.234Z,3.28
2023-02-21T16:36:32.997Z,3.05
2023-02-21T16:39:02.106Z,3.90
2023-02-21T16:41:31.746Z,4.80
2023-02-21T16:44:01.581Z,3.08
2023-02-21T16:46:31.590Z,3.70
2023-02-21T16:49:01.303Z,3.67
2023-02-21T16:51:34.811Z,6.30
2023-02-21T16:54:04.929Z,5.25
2023-02-21T16:56:35.291Z,6.78
2023-02-21T16:59:09.417Z,5.50
2023-02-21T17:01:39.196Z,3.50
2023-02-21T17:04:19.472Z,5.25
2023-02-21T17:07:01.096Z,5.60
2023-02-21T17:09:39.135Z,4.65
2023-02-21T17:12:15.300Z,4.28
2023-02-21T17:14:45.389Z,6.00
2023-02-21T17:17:15.535Z,12.80
2023-02-21T17:19:45.591Z,5.15
2023-02-21T17:22:15.944Z,3.83
2023-02-21T17:24:45.953Z,4.82
2023-02-21T17:27:16.171Z,3.40
2023-02-21T17:29:50.608Z,2.53
2023-02-21T17:32:20.683Z,7.32
2023-02-21T17:34:50.890Z,6.65
2023-02-21T17:37:20.953Z,4.47
2023-02-21T17:39:56.848Z,21.52
2023-02-21T17:42:27.310Z,4.38
2023-02-21T17:44:58.971Z,3.78
2023-02-21T17:47:29.815Z,3.08
2023-02-21T17:50:02.501Z,6.95
2023-02-21T17:52:33.678Z,5.55
2023-02-21T17:55:07.888Z,4.05
2023-02-21T17:57:40.601Z,3.58
2023-02-21T18:00:26.647Z,2.83
2023-02-21T18:02:57.213Z,4.78
2023-02-21T18:05:25.138Z,4.15
2023-02-21T18:07:54.674Z,5.15
2023-02-21T18:10:26.296Z,6.68
2023-02-21T18:12:54.136Z,7.38
2023-02-21T18:15:27.867Z,6.70
2023-02-21T18:18:03.961Z,3.58
2023-02-21T18:20:35.420Z,12.52
2023-02-21T18:23:08.945Z,6.82
2023-02-21T18:25:39.045Z,4.90
2023-02-21T18:28:09.263Z,8.32
2023-02-21T18:30:39.301Z,4.25
2023-02-21T18:33:09.422Z,6.70
2023-02-21T18:35:39.465Z,8.07
2023-02-21T18:38:09.500Z,5.47
2023-02-21T18:40:45.152Z,4.70
2023-02-21T18:43:29.794Z,5.05
2023-02-21T18:45:59.851Z,4.88
2023-02-21T18:48:30.013Z,4.13
2023-02-21T18:51:00.288Z,4.78
2023-02-21T18:53:30.346Z,6.28
2023-02-21T18:56:00.350Z,5.28
2023-02-21T18:58:30.482Z,5.53
2023-02-21T19:01:00.604Z,4.80
2023-02-21T19:03:30.956Z,4.15
2023-02-21T19:06:01.711Z,3.42
2023-02-21T19:08:31.205Z,4.75
2023-02-21T19:11:01.198Z,4.00
2023-02-21T19:13:31.206Z,4.57
2023-02-21T19:16:01.279Z,4.72
2023-02-21T19:18:32.461Z,5.20
2023-02-21T19:21:01.778Z,4.35
2023-02-21T19:23:31.837Z,4.20
2023-02-21T19:26:01.870Z,3.88
2023-02-21T19:28:32.054Z,4.03
2023-02-21T19:31:02.090Z,4.45
2023-02-21T19:33:32.374Z,3.75
2023-02-21T19:36:08.342Z,4.30
2023-02-21T19:38:37.451Z,4.38
2023-02-21T19:41:08.536Z,4.82
2023-02-21T19:43:36.219Z,3.85
2023-02-21T19:46:06.473Z,5.03
2023-02-21T19:48:37.076Z,4.65
2023-02-21T19:51:06.595Z,6.18
2023-02-21T19:53:36.645Z,5.95
2023-02-21T19:56:07.004Z,5.05
2023-02-21T19:58:37.270Z,4.25
2023-02-21T20:01:08.437Z,5.30
2023-02-21T20:03:35.771Z,4.07
2023-02-21T20:06:04.516Z,5.82
2023-02-21T20:08:32.746Z,5.78
2023-02-21T20:11:01.013Z,5.85
2023-02-21T20:13:29.392Z,5.32
2023-02-21T20:15:58.665Z,6.05
2023-02-21T20:18:26.209Z,4.60
2023-02-21T20:20:54.688Z,5.15
2023-02-21T20:23:23.237Z,4.65
2023-02-21T20:25:52.005Z,4.38
2023-02-21T20:28:20.120Z,5.00
2023-02-21T20:30:48.514Z,4.22
2023-02-21T20:33:17.154Z,6.15
2023-02-21T20:35:45.294Z,4.00
2023-02-21T20:38:13.752Z,4.03
2023-02-21T20:40:42.022Z,4.97
2023-02-21T20:43:10.796Z,5.07
2023-02-21T20:45:39.303Z,4.03
2023-02-21T20:48:11.591Z,4.20
2023-02-21T20:50:41.228Z,5.03
2023-02-21T20:53:11.780Z,6.05
2023-02-21T20:55:41.767Z,4.90
2023-02-21T20:58:11.875Z,4.38
2023-02-21T21:00:42.650Z,3.72
2023-02-21T21:03:15.329Z,4.80
2023-02-21T21:05:48.158Z,5.65
2023-02-21T21:08:18.181Z,4.10
2023-02-21T21:10:48.724Z,3.75
2023-02-21T21:13:18.882Z,4.72
2023-02-21T21:15:48.989Z,4.78
2023-02-21T21:18:19.108Z,5.50
2023-02-21T21:20:47.565Z,4.13
2023-02-21T21:23:16.702Z,4.13
2023-02-21T21:25:45.318Z,4.38
2023-02-21T21:28:13.678Z,5.03
2023-02-21T21:30:42.758Z,5.82
2023-02-21T21:33:11.215Z,4.82
2023-02-21T21:35:38.910Z,4.47
2023-02-21T21:38:07.544Z,6.53
2023-02-21T21:40:36.001Z,4.82
2023-02-21T21:43:07.655Z,5.70
2023-02-21T21:45:44.407Z,4.45
2023-02-21T21:48:15.095Z,4.95
2023-02-21T21:50:46.103Z,4.72
2023-02-21T21:53:16.875Z,5.15
2023-02-21T21:55:47.190Z,3.78
2023-02-21T21:58:17.733Z,4.70
2023-02-21T22:00:47.887Z,3.92
2023-02-21T22:03:18.501Z,4.30
2023-02-21T22:05:50.712Z,4.45
2023-02-21T22:08:22.570Z,3.38
2023-02-21T22:10:52.628Z,4.38
2023-02-21T22:13:22.741Z,4.80
2023-02-21T22:15:54.737Z,3.75
2023-02-21T22:18:24.750Z,5.63
2023-02-21T22:20:54.800Z,4.82
2023-02-21T22:23:26.174Z,4.28
2023-02-21T22:25:57.236Z,3.90
2023-02-21T22:28:25.668Z,5.00
2023-02-21T22:30:55.613Z,3.78
2023-02-21T22:33:26.139Z,6.03
2023-02-21T22:35:55.713Z,3.70
2023-02-21T22:38:25.503Z,3.80
2023-02-21T22:40:59.975Z,7.22
2023-02-21T22:43:30.022Z,4.35
2023-02-21T22:46:00.185Z,3.88
2023-02-21T22:48:30.210Z,3.38
2023-02-21T22:51:00.420Z,4.15
2023-02-21T22:53:30.426Z,4.40
2023-02-21T22:56:02.728Z,4.63
2023-02-21T22:58:32.927Z,3.85
2023-02-21T23:01:07.512Z,3.38
2023-02-21T23:03:41.048Z,5.82
2023-02-21T23:06:11.311Z,4.25
2023-02-21T23:08:49.004Z,4.20
2023-02-21T23:11:26.454Z,4.07
2023-02-21T23:13:57.430Z,4.90
2023-02-21T23:16:24.946Z,4.00
2023-02-21T23:18:53.428Z,4.22
2023-02-21T23:21:23.107Z,4.68
2023-02-21T23:23:53.460Z,4.80
2023-02-21T23:26:21.527Z,4.82
2023-02-21T23:28:50.474Z,6.07
2023-02-21T23:31:21.213Z,4.05
2023-02-21T23:33:53.456Z,5.00
2023-02-21T23:36:23.702Z,4.13
2023-02-21T23:38:53.958Z,4.85
2023-02-21T23:41:24.261Z,4.28
2023-02-21T23:43:54.295Z,4.30
2023-02-21T23:46:25.325Z,4.45
2023-02-21T23:48:55.336Z,5.60
2023-02-21T23:51:26.529Z,4.95
2023-02-21T23:53:56.536Z,4.43
2023-02-21T23:56:27.566Z,4.22
2023-02-21T23:58:57.620Z,6.13
